Norwegian Getaway — C6ZJ4 — position and weather

sailwx.info

Track history (hours):
 
Tides and Currents Weather Stations Pressure Air Temp Water Temp Dewpoint Dewpoint Depression Visibility Wind Speed Wind Dir Waves Ship Positions

Norwegian Getaway

Last reported at 2018-Feb-18 22:18 UTC. Time now 2018-Feb-22 17:10 UTC.
Position N 25°38' W 079°58'.

Length 326 m; draft 8.6 m.

Type: Passenger vessel. MMSI: 311050900.

Date/timePositionNaut miles runAvg speedWind from/ knotsBaromVisibWave heightAir tempDewpointWater temp
2018-Feb-18 22:18N 25°38' W 079°58'413.7
2018-Feb-18 22:00N 25°41' W 080°00'612.5
2018-Feb-18 21:30N 25°46' W 080°05'5 9.2
2018-Feb-18 21:00N 25°47' W 080°10'0 0.2
2018-Feb-18 20:30N 25°46' W 080°10'0 0.0
2018-Feb-18 20:00N 25°46' W 080°10'0 0.0
2018-Feb-18 19:30N 25°46' W 080°10'0 0.0
2018-Feb-18 19:00N 25°46' W 080°10'0 0.0
2018-Feb-18 18:30N 25°46' W 080°10'0 0.0
2018-Feb-18 17:57N 25°46' W 080°10'0 0.0
2018-Feb-18 17:30N 25°46' W 080°10'0 0.0
2018-Feb-18 17:00N 25°46' W 080°10'0 0.0
2018-Feb-18 16:30N 25°46' W 080°10'0 0.0
2018-Feb-18 16:00N 25°46' W 080°10'0 0.0
2018-Feb-18 15:30N 25°46' W 080°10'0 0.0
2018-Feb-18 15:00N 25°46' W 080°10'0 0.0
2018-Feb-18 14:30N 25°46' W 080°10'0 0.0
2018-Feb-18 14:00N 25°46' W 080°10'0 0.0
2018-Feb-18 13:30N 25°46' W 080°10'0 0.0
2018-Feb-18 13:00N 25°46' W 080°10'0 0.0
2018-Feb-18 12:30N 25°46' W 080°10'0 0.0
2018-Feb-18 11:54N 25°46' W 080°10'0 0.1
2018-Feb-18 11:30N 25°46' W 080°10'1 2.4
2018-Feb-18 11:00N 25°47' W 080°11'3 5.5
2018-Feb-18 10:30N 25°46' W 080°08'611.8
2018-Feb-18 10:01N 25°46' W 080°02'611.5
2018-Feb-18 09:30N 25°43' W 079°56'714.5
2018-Feb-18 09:00N 25°38' W 079°50'714.9
2018-Feb-18 08:31N 25°33' W 079°44'50014.6
2018-Feb-16 22:22N 20°32' W 086°58'1 1.9
2018-Feb-16 21:55N 20°31' W 086°57'0 0.0
2018-Feb-16 21:28N 20°31' W 086°57'0 0.0
2018-Feb-16 20:58N 20°31' W 086°57'0 0.0
2018-Feb-16 20:28N 20°31' W 086°57'0 0.0
2018-Feb-16 19:58N 20°31' W 086°57'0 0.0
2018-Feb-16 19:28N 20°31' W 086°57'0 0.0
2018-Feb-16 18:58N 20°31' W 086°57'0 0.0
2018-Feb-16 18:28N 20°31' W 086°57'0 0.0
2018-Feb-16 17:58N 20°31' W 086°57'0 0.0
2018-Feb-16 17:28N 20°31' W 086°57'0 0.0
2018-Feb-16 16:58N 20°31' W 086°57'0 0.0
2018-Feb-16 16:25N 20°31' W 086°57'0 0.0
2018-Feb-16 15:58N 20°31' W 086°57'0 0.0
2018-Feb-16 15:25N 20°31' W 086°57'0 0.0
2018-Feb-16 14:58N 20°31' W 086°57'0 0.0
2018-Feb-16 14:28N 20°31' W 086°57'0 0.0
2018-Feb-16 13:58N 20°31' W 086°57'0 0.0
2018-Feb-16 13:25N 20°31' W 086°57'0 0.0
2018-Feb-16 12:58N 20°31' W 086°57'0 0.3
2018-Feb-16 12:30N 20°31' W 086°57'3 5.1
2018-Feb-16 12:00N 20°29' W 086°60'  
2018-Feb-11 22:40N 25°36' W 079°57'315.2
2018-Feb-11 22:27N 25°39' W 079°59'614.6
2018-Feb-11 22:01N 25°45' W 080°02'4 8.4
2018-Feb-11 21:30N 25°45' W 080°07'3 5.5
2018-Feb-11 21:00N 25°46' W 080°10'0 0.0
2018-Feb-11 20:29N 25°46' W 080°10'0 0.0
2018-Feb-11 19:59N 25°46' W 080°10'0 0.0
2018-Feb-11 19:29N 25°46' W 080°10'0 0.0
2018-Feb-11 18:59N 25°46' W 080°10'0 0.0
2018-Feb-11 18:23N 25°46' W 080°10'0 0.0
2018-Feb-11 17:56N 25°46' W 080°10'0 0.0
2018-Feb-11 17:29N 25°46' W 080°10'0 0.0
2018-Feb-11 16:56N 25°46' W 080°10'0 0.0
2018-Feb-11 16:29N 25°46' W 080°10'0 0.0
2018-Feb-11 15:59N 25°46' W 080°10'0 0.0
2018-Feb-11 15:29N 25°46' W 080°10'0 0.0
2018-Feb-11 14:59N 25°46' W 080°10'0 0.0
2018-Feb-11 14:26N 25°46' W 080°10'0 0.0
2018-Feb-11 13:59N 25°46' W 080°10'0 0.0
2018-Feb-11 13:29N 25°46' W 080°10'0 0.0
2018-Feb-11 12:59N 25°46' W 080°10'0 0.0
2018-Feb-11 12:29N 25°46' W 080°10'0 0.0
2018-Feb-11 11:59N 25°46' W 080°10'0 0.1
2018-Feb-11 11:30N 25°46' W 080°10'1 2.3
2018-Feb-11 11:00N 25°47' W 080°11'3 7.0
2018-Feb-11 10:30N 25°46' W 080°08'510.5
2018-Feb-11 10:01N 25°47' W 080°02'612.5
2018-Feb-11 09:30N 25°43' W 079°56'714.9
2018-Feb-11 09:00N 25°38' W 079°50'815.2
2018-Feb-11 08:30N 25°34' W 079°43'49714.6
2018-Feb-09 22:25N 20°36' W 086°56'6 0.6
2018-Feb-09 12:30N 20°31' W 086°57'  
Track history (hours):
 
Tides and Currents Weather Stations Pressure Air Temp Water Temp Dewpoint Dewpoint Depression Visibility Wind Speed Wind Dir Waves Ship Positions

Norwegian Getaway

Last reported at 2018-Feb-18 22:18 UTC. Time now 2018-Feb-22 17:10 UTC.
Position N 25°38' W 079°58'.

Length 326 m; draft 8.6 m.

Type: Passenger vessel. MMSI: 311050900.

Date/timePositionNaut miles runAvg speedWind from/ knotsBaromVisibWave heightAir tempDewpointWater temp
2018-Feb-18 22:18N 25°38' W 079°58'413.7
2018-Feb-18 22:00N 25°41' W 080°00'612.5
2018-Feb-18 21:30N 25°46' W 080°05'5 9.2
2018-Feb-18 21:00N 25°47' W 080°10'0 0.2
2018-Feb-18 20:30N 25°46' W 080°10'0 0.0
2018-Feb-18 20:00N 25°46' W 080°10'0 0.0
2018-Feb-18 19:30N 25°46' W 080°10'0 0.0
2018-Feb-18 19:00N 25°46' W 080°10'0 0.0
2018-Feb-18 18:30N 25°46' W 080°10'0 0.0
2018-Feb-18 17:57N 25°46' W 080°10'0 0.0
2018-Feb-18 17:30N 25°46' W 080°10'0 0.0
2018-Feb-18 17:00N 25°46' W 080°10'0 0.0
2018-Feb-18 16:30N 25°46' W 080°10'0 0.0
2018-Feb-18 16:00N 25°46' W 080°10'0 0.0
2018-Feb-18 15:30N 25°46' W 080°10'0 0.0
2018-Feb-18 15:00N 25°46' W 080°10'0 0.0
2018-Feb-18 14:30N 25°46' W 080°10'0 0.0
2018-Feb-18 14:00N 25°46' W 080°10'0 0.0
2018-Feb-18 13:30N 25°46' W 080°10'0 0.0
2018-Feb-18 13:00N 25°46' W 080°10'0 0.0
2018-Feb-18 12:30N 25°46' W 080°10'0 0.0
2018-Feb-18 11:54N 25°46' W 080°10'0 0.1
2018-Feb-18 11:30N 25°46' W 080°10'1 2.4
2018-Feb-18 11:00N 25°47' W 080°11'3 5.5
2018-Feb-18 10:30N 25°46' W 080°08'611.8
2018-Feb-18 10:01N 25°46' W 080°02'611.5
2018-Feb-18 09:30N 25°43' W 079°56'714.5
2018-Feb-18 09:00N 25°38' W 079°50'714.9
2018-Feb-18 08:31N 25°33' W 079°44'50014.6
2018-Feb-16 22:22N 20°32' W 086°58'1 1.9
2018-Feb-16 21:55N 20°31' W 086°57'0 0.0
2018-Feb-16 21:28N 20°31' W 086°57'0 0.0
2018-Feb-16 20:58N 20°31' W 086°57'0 0.0
2018-Feb-16 20:28N 20°31' W 086°57'0 0.0
2018-Feb-16 19:58N 20°31' W 086°57'0 0.0
2018-Feb-16 19:28N 20°31' W 086°57'0 0.0
2018-Feb-16 18:58N 20°31' W 086°57'0 0.0
2018-Feb-16 18:28N 20°31' W 086°57'0 0.0
2018-Feb-16 17:58N 20°31' W 086°57'0 0.0
2018-Feb-16 17:28N 20°31' W 086°57'0 0.0
2018-Feb-16 16:58N 20°31' W 086°57'0 0.0
2018-Feb-16 16:25N 20°31' W 086°57'0 0.0
2018-Feb-16 15:58N 20°31' W 086°57'0 0.0
2018-Feb-16 15:25N 20°31' W 086°57'0 0.0
2018-Feb-16 14:58N 20°31' W 086°57'0 0.0
2018-Feb-16 14:28N 20°31' W 086°57'0 0.0
2018-Feb-16 13:58N 20°31' W 086°57'0 0.0
2018-Feb-16 13:25N 20°31' W 086°57'0 0.0
2018-Feb-16 12:58N 20°31' W 086°57'0 0.3
2018-Feb-16 12:30N 20°31' W 086°57'3 5.1
2018-Feb-16 12:00N 20°29' W 086°60'  
2018-Feb-11 22:40N 25°36' W 079°57'315.2
2018-Feb-11 22:27N 25°39' W 079°59'614.6
2018-Feb-11 22:01N 25°45' W 080°02'4 8.4
2018-Feb-11 21:30N 25°45' W 080°07'3 5.5
2018-Feb-11 21:00N 25°46' W 080°10'0 0.0
2018-Feb-11 20:29N 25°46' W 080°10'0 0.0
2018-Feb-11 19:59N 25°46' W 080°10'0 0.0
2018-Feb-11 19:29N 25°46' W 080°10'0 0.0
2018-Feb-11 18:59N 25°46' W 080°10'0 0.0
2018-Feb-11 18:23N 25°46' W 080°10'0 0.0
2018-Feb-11 17:56N 25°46' W 080°10'0 0.0
2018-Feb-11 17:29N 25°46' W 080°10'0 0.0
2018-Feb-11 16:56N 25°46' W 080°10'0 0.0
2018-Feb-11 16:29N 25°46' W 080°10'0 0.0
2018-Feb-11 15:59N 25°46' W 080°10'0 0.0
2018-Feb-11 15:29N 25°46' W 080°10'0 0.0
2018-Feb-11 14:59N 25°46' W 080°10'0 0.0
2018-Feb-11 14:26N 25°46' W 080°10'0 0.0
2018-Feb-11 13:59N 25°46' W 080°10'0 0.0
2018-Feb-11 13:29N 25°46' W 080°10'0 0.0
2018-Feb-11 12:59N 25°46' W 080°10'0 0.0
2018-Feb-11 12:29N 25°46' W 080°10'0 0.0
2018-Feb-11 11:59N 25°46' W 080°10'0 0.1
2018-Feb-11 11:30N 25°46' W 080°10'1 2.3
2018-Feb-11 11:00N 25°47' W 080°11'3 7.0
2018-Feb-11 10:30N 25°46' W 080°08'510.5
2018-Feb-11 10:01N 25°47' W 080°02'612.5
2018-Feb-11 09:30N 25°43' W 079°56'714.9
2018-Feb-11 09:00N 25°38' W 079°50'815.2
2018-Feb-11 08:30N 25°34' W 079°43'49714.6
2018-Feb-09 22:25N 20°36' W 086°56'6 0.6
2018-Feb-09 12:30N 20°31' W 086°57'  

Dump ship's entire track history